sensor_id;sensor_type;location;lat;lon;timestamp;P1;durP1;ratioP1;P2;durP2;ratioP2
16824;SDS011;8529;48.108;-1.706;2023-11-21T00:00:23;6.43;;;1.70;;
16824;SDS011;8529;48.108;-1.706;2023-11-21T00:02:52;6.55;;;1.80;;
16824;SDS011;8529;48.108;-1.706;2023-11-21T00:05:19;8.98;;;2.00;;
16824;SDS011;8529;48.108;-1.706;2023-11-21T00:07:48;6.32;;;1.80;;
16824;SDS011;8529;48.108;-1.706;2023-11-21T00:10:16;4.03;;;1.85;;
16824;SDS011;8529;48.108;-1.706;2023-11-21T00:12:43;4.35;;;1.30;;
16824;SDS011;8529;48.108;-1.706;2023-11-21T00:15:13;5.18;;;1.35;;
16824;SDS011;8529;48.108;-1.706;2023-11-21T00:17:40;4.25;;;1.35;;
16824;SDS011;8529;48.108;-1.706;2023-11-21T00:20:09;3.45;;;1.17;;
16824;SDS011;8529;48.108;-1.706;2023-11-21T00:22:37;3.75;;;1.38;;
16824;SDS011;8529;48.108;-1.706;2023-11-21T00:25:05;2.67;;;1.27;;
16824;SDS011;8529;48.108;-1.706;2023-11-21T00:27:34;2.67;;;1.02;;
16824;SDS011;8529;48.108;-1.706;2023-11-21T00:30:01;5.95;;;1.20;;
16824;SDS011;8529;48.108;-1.706;2023-11-21T00:32:29;5.00;;;1.20;;
16824;SDS011;8529;48.108;-1.706;2023-11-21T00:34:56;4.68;;;2.42;;
16824;SDS011;8529;48.108;-1.706;2023-11-21T00:37:25;5.00;;;2.33;;
16824;SDS011;8529;48.108;-1.706;2023-11-21T00:39:52;3.63;;;1.50;;
16824;SDS011;8529;48.108;-1.706;2023-11-21T00:42:19;5.18;;;1.48;;
16824;SDS011;8529;48.108;-1.706;2023-11-21T00:44:47;5.22;;;1.58;;
16824;SDS011;8529;48.108;-1.706;2023-11-21T00:47:14;7.30;;;1.73;;
16824;SDS011;8529;48.108;-1.706;2023-11-21T00:49:41;5.00;;;1.60;;
16824;SDS011;8529;48.108;-1.706;2023-11-21T00:52:09;6.25;;;1.90;;
16824;SDS011;8529;48.108;-1.706;2023-11-21T00:54:37;4.78;;;1.63;;
16824;SDS011;8529;48.108;-1.706;2023-11-21T00:57:04;3.90;;;1.40;;
16824;SDS011;8529;48.108;-1.706;2023-11-21T00:59:33;4.38;;;1.45;;
16824;SDS011;8529;48.108;-1.706;2023-11-21T01:02:00;7.22;;;1.40;;
16824;SDS011;8529;48.108;-1.706;2023-11-21T01:04:27;4.63;;;1.48;;
16824;SDS011;8529;48.108;-1.706;2023-11-21T01:06:54;3.47;;;1.40;;
16824;SDS011;8529;48.108;-1.706;2023-11-21T01:09:21;8.10;;;1.65;;
16824;SDS011;8529;48.108;-1.706;2023-11-21T01:11:49;4.32;;;1.38;;
16824;SDS011;8529;48.108;-1.706;2023-11-21T01:14:17;3.38;;;1.00;;
16824;SDS011;8529;48.108;-1.706;2023-11-21T01:16:44;6.22;;;1.35;;
16824;SDS011;8529;48.108;-1.706;2023-11-21T01:19:11;4.10;;;1.23;;
16824;SDS011;8529;48.108;-1.706;2023-11-21T01:21:38;6.47;;;1.40;;
16824;SDS011;8529;48.108;-1.706;2023-11-21T01:24:05;5.65;;;1.15;;
16824;SDS011;8529;48.108;-1.706;2023-11-21T01:26:32;4.20;;;1.27;;
16824;SDS011;8529;48.108;-1.706;2023-11-21T01:29:01;6.60;;;1.52;;
16824;SDS011;8529;48.108;-1.706;2023-11-21T01:31:28;5.20;;;1.67;;
16824;SDS011;8529;48.108;-1.706;2023-11-21T01:33:55;7.05;;;1.45;;
16824;SDS011;8529;48.108;-1.706;2023-11-21T01:36:22;8.05;;;1.25;;
16824;SDS011;8529;48.108;-1.706;2023-11-21T01:38:49;3.72;;;1.00;;
16824;SDS011;8529;48.108;-1.706;2023-11-21T01:41:16;6.28;;;1.35;;
16824;SDS011;8529;48.108;-1.706;2023-11-21T01:43:43;7.45;;;1.02;;
16824;SDS011;8529;48.108;-1.706;2023-11-21T01:46:11;3.65;;;1.10;;
16824;SDS011;8529;48.108;-1.706;2023-11-21T01:48:40;1.83;;;0.82;;
16824;SDS011;8529;48.108;-1.706;2023-11-21T01:51:07;9.88;;;1.77;;
16824;SDS011;8529;48.108;-1.706;2023-11-21T01:53:34;4.72;;;1.10;;
16824;SDS011;8529;48.108;-1.706;2023-11-21T01:56:01;2.95;;;1.15;;
16824;SDS011;8529;48.108;-1.706;2023-11-21T01:58:30;7.38;;;2.15;;
16824;SDS011;8529;48.108;-1.706;2023-11-21T02:00:57;8.75;;;1.27;;
16824;SDS011;8529;48.108;-1.706;2023-11-21T02:03:25;5.25;;;1.13;;
16824;SDS011;8529;48.108;-1.706;2023-11-21T02:05:52;3.65;;;1.00;;
16824;SDS011;8529;48.108;-1.706;2023-11-21T02:08:19;3.25;;;0.90;;
16824;SDS011;8529;48.108;-1.706;2023-11-21T02:10:46;6.90;;;1.15;;
16824;SDS011;8529;48.108;-1.706;2023-11-21T02:13:13;3.72;;;1.10;;
16824;SDS011;8529;48.108;-1.706;2023-11-21T02:15:41;9.70;;;1.35;;
16824;SDS011;8529;48.108;-1.706;2023-11-21T02:18:08;9.05;;;1.20;;
16824;SDS011;8529;48.108;-1.706;2023-11-21T02:20:37;8.57;;;1.67;;
16824;SDS011;8529;48.108;-1.706;2023-11-21T02:23:08;4.65;;;0.85;;
16824;SDS011;8529;48.108;-1.706;2023-11-21T02:25:35;6.43;;;1.40;;
16824;SDS011;8529;48.108;-1.706;2023-11-21T02:28:03;2.75;;;0.90;;
16824;SDS011;8529;48.108;-1.706;2023-11-21T02:30:31;3.83;;;1.20;;
16824;SDS011;8529;48.108;-1.706;2023-11-21T02:32:58;4.60;;;0.95;;
16824;SDS011;8529;48.108;-1.706;2023-11-21T02:35:26;4.97;;;1.20;;
16824;SDS011;8529;48.108;-1.706;2023-11-21T02:37:53;4.75;;;0.85;;
16824;SDS011;8529;48.108;-1.706;2023-11-21T02:40:21;3.67;;;0.90;;
16824;SDS011;8529;48.108;-1.706;2023-11-21T02:42:50;7.20;;;1.35;;
16824;SDS011;8529;48.108;-1.706;2023-11-21T02:45:17;2.92;;;1.10;;
16824;SDS011;8529;48.108;-1.706;2023-11-21T02:47:45;1.83;;;0.75;;
16824;SDS011;8529;48.108;-1.706;2023-11-21T02:50:14;3.05;;;0.80;;
16824;SDS011;8529;48.108;-1.706;2023-11-21T02:52:41;2.95;;;0.95;;
16824;SDS011;8529;48.108;-1.706;2023-11-21T02:55:09;1.85;;;0.75;;
16824;SDS011;8529;48.108;-1.706;2023-11-21T02:57:37;6.93;;;1.00;;
16824;SDS011;8529;48.108;-1.706;2023-11-21T03:00:05;5.32;;;1.00;;
16824;SDS011;8529;48.108;-1.706;2023-11-21T03:02:35;4.65;;;0.98;;
16824;SDS011;8529;48.108;-1.706;2023-11-21T03:05:04;3.78;;;0.90;;
16824;SDS011;8529;48.108;-1.706;2023-11-21T03:07:31;5.32;;;0.98;;
16824;SDS011;8529;48.108;-1.706;2023-11-21T03:09:58;5.30;;;1.20;;
16824;SDS011;8529;48.108;-1.706;2023-11-21T03:12:25;4.63;;;0.90;;
16824;SDS011;8529;48.108;-1.706;2023-11-21T03:14:53;3.50;;;1.00;;
16824;SDS011;8529;48.108;-1.706;2023-11-21T03:17:20;4.35;;;0.90;;
16824;SDS011;8529;48.108;-1.706;2023-11-21T03:19:47;8.48;;;0.90;;
16824;SDS011;8529;48.108;-1.706;2023-11-21T03:22:13;5.28;;;1.10;;
16824;SDS011;8529;48.108;-1.706;2023-11-21T03:24:40;4.70;;;1.55;;
16824;SDS011;8529;48.108;-1.706;2023-11-21T03:27:07;5.05;;;1.08;;
16824;SDS011;8529;48.108;-1.706;2023-11-21T03:29:34;6.88;;;0.85;;
16824;SDS011;8529;48.108;-1.706;2023-11-21T03:32:03;5.05;;;1.10;;
16824;SDS011;8529;48.108;-1.706;2023-11-21T03:34:30;3.85;;;1.05;;
16824;SDS011;8529;48.108;-1.706;2023-11-21T03:36:57;6.57;;;1.02;;
16824;SDS011;8529;48.108;-1.706;2023-11-21T03:39:23;2.80;;;0.85;;
16824;SDS011;8529;48.108;-1.706;2023-11-21T03:41:51;3.83;;;0.80;;
16824;SDS011;8529;48.108;-1.706;2023-11-21T03:44:18;5.43;;;1.08;;
16824;SDS011;8529;48.108;-1.706;2023-11-21T03:46:44;6.28;;;1.30;;
16824;SDS011;8529;48.108;-1.706;2023-11-21T03:49:13;7.13;;;1.90;;
16824;SDS011;8529;48.108;-1.706;2023-11-21T03:51:39;9.20;;;2.28;;
16824;SDS011;8529;48.108;-1.706;2023-11-21T03:54:06;4.22;;;1.30;;
16824;SDS011;8529;48.108;-1.706;2023-11-21T03:56:33;7.82;;;1.63;;
16824;SDS011;8529;48.108;-1.706;2023-11-21T03:59:00;6.85;;;1.67;;
16824;SDS011;8529;48.108;-1.706;2023-11-21T04:01:27;7.15;;;1.30;;
16824;SDS011;8529;48.108;-1.706;2023-11-21T04:03:54;4.75;;;1.40;;
16824;SDS011;8529;48.108;-1.706;2023-11-21T04:06:23;11.88;;;1.75;;
16824;SDS011;8529;48.108;-1.706;2023-11-21T04:08:50;2.47;;;0.82;;
16824;SDS011;8529;48.108;-1.706;2023-11-21T04:11:17;3.85;;;1.10;;
16824;SDS011;8529;48.108;-1.706;2023-11-21T04:13:44;6.63;;;1.35;;
16824;SDS011;8529;48.108;-1.706;2023-11-21T04:16:12;5.75;;;1.23;;
16824;SDS011;8529;48.108;-1.706;2023-11-21T04:18:39;6.90;;;1.50;;
16824;SDS011;8529;48.108;-1.706;2023-11-21T04:21:06;5.10;;;0.82;;
16824;SDS011;8529;48.108;-1.706;2023-11-21T04:23:35;3.50;;;1.17;;
16824;SDS011;8529;48.108;-1.706;2023-11-21T04:26:02;4.78;;;1.25;;
16824;SDS011;8529;48.108;-1.706;2023-11-21T04:28:29;4.25;;;1.50;;
16824;SDS011;8529;48.108;-1.706;2023-11-21T04:30:56;5.32;;;1.45;;
16824;SDS011;8529;48.108;-1.706;2023-11-21T04:33:23;3.90;;;1.20;;
16824;SDS011;8529;48.108;-1.706;2023-11-21T04:35:50;6.45;;;1.35;;
16824;SDS011;8529;48.108;-1.706;2023-11-21T04:38:17;5.93;;;1.00;;
16824;SDS011;8529;48.108;-1.706;2023-11-21T04:40:45;4.68;;;1.60;;
16824;SDS011;8529;48.108;-1.706;2023-11-21T04:43:12;2.90;;;0.95;;
16824;SDS011;8529;48.108;-1.706;2023-11-21T04:45:39;5.95;;;1.20;;
16824;SDS011;8529;48.108;-1.706;2023-11-21T04:48:06;5.78;;;1.35;;
16824;SDS011;8529;48.108;-1.706;2023-11-21T04:50:33;4.40;;;0.70;;
16824;SDS011;8529;48.108;-1.706;2023-11-21T04:53:00;4.75;;;1.10;;
16824;SDS011;8529;48.108;-1.706;2023-11-21T04:55:27;3.30;;;1.52;;
16824;SDS011;8529;48.108;-1.706;2023-11-21T04:57:55;3.90;;;1.05;;
16824;SDS011;8529;48.108;-1.706;2023-11-21T05:00:22;5.32;;;1.33;;
16824;SDS011;8529;48.108;-1.706;2023-11-21T05:02:49;5.25;;;1.63;;
16824;SDS011;8529;48.108;-1.706;2023-11-21T05:05:17;3.70;;;1.55;;
16824;SDS011;8529;48.108;-1.706;2023-11-21T05:07:44;3.70;;;1.10;;
16824;SDS011;8529;48.108;-1.706;2023-11-21T05:10:11;4.15;;;1.33;;
16824;SDS011;8529;48.108;-1.706;2023-11-21T05:12:40;5.90;;;1.38;;
16824;SDS011;8529;48.108;-1.706;2023-11-21T05:15:09;5.07;;;1.00;;
16824;SDS011;8529;48.108;-1.706;2023-11-21T05:17:39;4.35;;;1.20;;
16824;SDS011;8529;48.108;-1.706;2023-11-21T05:20:08;2.60;;;1.05;;
16824;SDS011;8529;48.108;-1.706;2023-11-21T05:22:36;3.92;;;1.10;;
16824;SDS011;8529;48.108;-1.706;2023-11-21T05:25:03;3.78;;;0.95;;
16824;SDS011;8529;48.108;-1.706;2023-11-21T05:27:32;6.32;;;1.77;;
16824;SDS011;8529;48.108;-1.706;2023-11-21T05:30:00;6.50;;;1.88;;
16824;SDS011;8529;48.108;-1.706;2023-11-21T05:32:31;7.85;;;1.40;;
16824;SDS011;8529;48.108;-1.706;2023-11-21T05:34:59;6.05;;;1.95;;
16824;SDS011;8529;48.108;-1.706;2023-11-21T05:37:26;5.88;;;1.50;;
16824;SDS011;8529;48.108;-1.706;2023-11-21T05:39:53;5.13;;;1.30;;
16824;SDS011;8529;48.108;-1.706;2023-11-21T05:42:21;5.20;;;1.23;;
16824;SDS011;8529;48.108;-1.706;2023-11-21T05:44:48;5.40;;;1.65;;
16824;SDS011;8529;48.108;-1.706;2023-11-21T05:47:15;4.47;;;1.05;;
16824;SDS011;8529;48.108;-1.706;2023-11-21T05:49:43;3.30;;;1.38;;
16824;SDS011;8529;48.108;-1.706;2023-11-21T05:52:15;4.95;;;1.10;;
16824;SDS011;8529;48.108;-1.706;2023-11-21T05:54:42;7.90;;;1.70;;
16824;SDS011;8529;48.108;-1.706;2023-11-21T05:57:08;9.13;;;1.90;;
16824;SDS011;8529;48.108;-1.706;2023-11-21T05:59:35;4.00;;;1.23;;
16824;SDS011;8529;48.108;-1.706;2023-11-21T06:02:02;4.38;;;1.20;;
16824;SDS011;8529;48.108;-1.706;2023-11-21T06:04:30;4.28;;;1.30;;
16824;SDS011;8529;48.108;-1.706;2023-11-21T06:06:58;4.32;;;1.48;;
16824;SDS011;8529;48.108;-1.706;2023-11-21T06:09:25;8.65;;;1.88;;
16824;SDS011;8529;48.108;-1.706;2023-11-21T06:11:52;7.60;;;1.50;;
16824;SDS011;8529;48.108;-1.706;2023-11-21T06:14:19;5.60;;;1.50;;
16824;SDS011;8529;48.108;-1.706;2023-11-21T06:16:47;7.93;;;2.13;;
16824;SDS011;8529;48.108;-1.706;2023-11-21T06:19:16;7.55;;;1.77;;
16824;SDS011;8529;48.108;-1.706;2023-11-21T06:21:45;6.10;;;1.83;;
16824;SDS011;8529;48.108;-1.706;2023-11-21T06:24:13;4.18;;;1.75;;
16824;SDS011;8529;48.108;-1.706;2023-11-21T06:26:41;8.35;;;2.65;;
16824;SDS011;8529;48.108;-1.706;2023-11-21T06:29:09;7.30;;;2.20;;
16824;SDS011;8529;48.108;-1.706;2023-11-21T06:31:36;3.80;;;1.63;;
16824;SDS011;8529;48.108;-1.706;2023-11-21T06:34:03;2.88;;;1.65;;
16824;SDS011;8529;48.108;-1.706;2023-11-21T06:36:30;5.68;;;1.73;;
16824;SDS011;8529;48.108;-1.706;2023-11-21T06:38:56;4.78;;;1.55;;
16824;SDS011;8529;48.108;-1.706;2023-11-21T06:41:25;7.68;;;1.83;;
16824;SDS011;8529;48.108;-1.706;2023-11-21T06:43:51;6.32;;;1.85;;
16824;SDS011;8529;48.108;-1.706;2023-11-21T06:46:18;6.18;;;1.67;;
16824;SDS011;8529;48.108;-1.706;2023-11-21T06:48:45;7.15;;;1.83;;
16824;SDS011;8529;48.108;-1.706;2023-11-21T06:51:13;7.65;;;1.65;;
16824;SDS011;8529;48.108;-1.706;2023-11-21T06:53:40;6.90;;;1.50;;
16824;SDS011;8529;48.108;-1.706;2023-11-21T06:56:14;7.80;;;1.80;;
16824;SDS011;8529;48.108;-1.706;2023-11-21T06:58:43;5.35;;;1.60;;
16824;SDS011;8529;48.108;-1.706;2023-11-21T07:01:11;5.15;;;1.35;;
16824;SDS011;8529;48.108;-1.706;2023-11-21T07:03:38;8.32;;;1.63;;
16824;SDS011;8529;48.108;-1.706;2023-11-21T07:06:06;8.63;;;1.65;;
16824;SDS011;8529;48.108;-1.706;2023-11-21T07:08:33;9.65;;;1.63;;
16824;SDS011;8529;48.108;-1.706;2023-11-21T07:11:00;6.05;;;1.48;;
16824;SDS011;8529;48.108;-1.706;2023-11-21T07:13:28;8.82;;;2.08;;
16824;SDS011;8529;48.108;-1.706;2023-11-21T07:15:56;4.93;;;1.70;;
16824;SDS011;8529;48.108;-1.706;2023-11-21T07:18:23;6.63;;;1.60;;
16824;SDS011;8529;48.108;-1.706;2023-11-21T07:20:50;5.53;;;2.20;;
16824;SDS011;8529;48.108;-1.706;2023-11-21T07:23:18;4.55;;;1.48;;
16824;SDS011;8529;48.108;-1.706;2023-11-21T07:25:44;7.05;;;1.80;;
16824;SDS011;8529;48.108;-1.706;2023-11-21T07:28:12;6.90;;;1.50;;
16824;SDS011;8529;48.108;-1.706;2023-11-21T07:30:39;7.05;;;1.33;;
16824;SDS011;8529;48.108;-1.706;2023-11-21T07:33:07;3.90;;;1.35;;
16824;SDS011;8529;48.108;-1.706;2023-11-21T07:35:33;4.03;;;1.08;;
16824;SDS011;8529;48.108;-1.706;2023-11-21T07:38:00;2.10;;;1.38;;
16824;SDS011;8529;48.108;-1.706;2023-11-21T07:40:28;3.38;;;0.90;;
16824;SDS011;8529;48.108;-1.706;2023-11-21T07:42:55;1.80;;;0.80;;
16824;SDS011;8529;48.108;-1.706;2023-11-21T07:45:22;2.50;;;1.02;;
16824;SDS011;8529;48.108;-1.706;2023-11-21T07:47:49;6.40;;;1.40;;
16824;SDS011;8529;48.108;-1.706;2023-11-21T07:50:17;3.53;;;1.08;;
16824;SDS011;8529;48.108;-1.706;2023-11-21T07:52:45;2.95;;;0.80;;
16824;SDS011;8529;48.108;-1.706;2023-11-21T07:55:12;4.10;;;0.93;;
16824;SDS011;8529;48.108;-1.706;2023-11-21T07:57:39;1.60;;;0.88;;
16824;SDS011;8529;48.108;-1.706;2023-11-21T08:00:06;3.28;;;0.88;;
16824;SDS011;8529;48.108;-1.706;2023-11-21T08:02:37;2.15;;;1.08;;
16824;SDS011;8529;48.108;-1.706;2023-11-21T08:05:04;1.63;;;0.82;;
16824;SDS011;8529;48.108;-1.706;2023-11-21T08:07:33;2.92;;;0.80;;
16824;SDS011;8529;48.108;-1.706;2023-11-21T08:10:00;3.15;;;0.88;;
16824;SDS011;8529;48.108;-1.706;2023-11-21T08:12:28;3.28;;;0.80;;
16824;SDS011;8529;48.108;-1.706;2023-11-21T08:14:54;1.48;;;0.60;;
16824;SDS011;8529;48.108;-1.706;2023-11-21T08:17:21;6.05;;;1.20;;
16824;SDS011;8529;48.108;-1.706;2023-11-21T08:19:48;4.75;;;1.08;;
16824;SDS011;8529;48.108;-1.706;2023-11-21T08:22:16;3.78;;;1.20;;
16824;SDS011;8529;48.108;-1.706;2023-11-21T08:24:44;5.57;;;1.00;;
16824;SDS011;8529;48.108;-1.706;2023-11-21T08:27:11;7.47;;;0.93;;
16824;SDS011;8529;48.108;-1.706;2023-11-21T08:29:40;2.25;;;1.00;;
16824;SDS011;8529;48.108;-1.706;2023-11-21T08:32:07;1.85;;;0.98;;
16824;SDS011;8529;48.108;-1.706;2023-11-21T08:34:34;2.58;;;0.70;;
16824;SDS011;8529;48.108;-1.706;2023-11-21T08:37:01;2.25;;;0.90;;
16824;SDS011;8529;48.108;-1.706;2023-11-21T08:39:28;3.85;;;0.98;;
16824;SDS011;8529;48.108;-1.706;2023-11-21T08:41:56;5.28;;;0.90;;
16824;SDS011;8529;48.108;-1.706;2023-11-21T08:44:23;2.63;;;0.93;;
16824;SDS011;8529;48.108;-1.706;2023-11-21T08:46:50;2.95;;;1.20;;
16824;SDS011;8529;48.108;-1.706;2023-11-21T08:49:17;2.38;;;0.77;;
16824;SDS011;8529;48.108;-1.706;2023-11-21T08:51:44;2.90;;;0.90;;
16824;SDS011;8529;48.108;-1.706;2023-11-21T08:54:11;4.32;;;1.40;;
16824;SDS011;8529;48.108;-1.706;2023-11-21T08:56:38;3.03;;;1.05;;
16824;SDS011;8529;48.108;-1.706;2023-11-21T08:59:06;1.00;;;0.65;;
16824;SDS011;8529;48.108;-1.706;2023-11-21T09:01:33;4.88;;;1.40;;
16824;SDS011;8529;48.108;-1.706;2023-11-21T09:04:00;2.65;;;1.13;;
16824;SDS011;8529;48.108;-1.706;2023-11-21T09:06:27;2.80;;;0.95;;
16824;SDS011;8529;48.108;-1.706;2023-11-21T09:08:54;4.78;;;1.35;;
16824;SDS011;8529;48.108;-1.706;2023-11-21T09:11:21;6.18;;;1.85;;
16824;SDS011;8529;48.108;-1.706;2023-11-21T09:13:51;5.18;;;2.35;;
16824;SDS011;8529;48.108;-1.706;2023-11-21T09:16:19;3.60;;;1.50;;
16824;SDS011;8529;48.108;-1.706;2023-11-21T09:18:46;4.45;;;1.20;;
16824;SDS011;8529;48.108;-1.706;2023-11-21T09:21:13;3.28;;;1.30;;
16824;SDS011;8529;48.108;-1.706;2023-11-21T09:23:40;4.32;;;1.20;;
16824;SDS011;8529;48.108;-1.706;2023-11-21T09:26:06;2.72;;;1.30;;
16824;SDS011;8529;48.108;-1.706;2023-11-21T09:28:33;4.40;;;1.20;;
16824;SDS011;8529;48.108;-1.706;2023-11-21T09:31:02;3.75;;;1.50;;
16824;SDS011;8529;48.108;-1.706;2023-11-21T09:33:31;2.85;;;0.80;;
16824;SDS011;8529;48.108;-1.706;2023-11-21T09:35:59;3.20;;;1.00;;
16824;SDS011;8529;48.108;-1.706;2023-11-21T09:38:26;5.03;;;1.15;;
16824;SDS011;8529;48.108;-1.706;2023-11-21T09:40:53;5.50;;;1.40;;
16824;SDS011;8529;48.108;-1.706;2023-11-21T09:43:23;6.47;;;1.75;;
16824;SDS011;8529;48.108;-1.706;2023-11-21T09:45:54;6.10;;;1.42;;
16824;SDS011;8529;48.108;-1.706;2023-11-21T09:48:25;4.15;;;1.48;;
16824;SDS011;8529;48.108;-1.706;2023-11-21T09:50:54;5.65;;;1.73;;
16824;SDS011;8529;48.108;-1.706;2023-11-21T09:53:21;2.88;;;1.05;;
16824;SDS011;8529;48.108;-1.706;2023-11-21T09:55:50;3.97;;;2.05;;
16824;SDS011;8529;48.108;-1.706;2023-11-21T09:58:18;2.70;;;1.30;;
16824;SDS011;8529;48.108;-1.706;2023-11-21T10:00:48;3.70;;;1.40;;
16824;SDS011;8529;48.108;-1.706;2023-11-21T10:03:18;5.22;;;1.23;;
16824;SDS011;8529;48.108;-1.706;2023-11-21T10:05:46;5.15;;;1.40;;
16824;SDS011;8529;48.108;-1.706;2023-11-21T10:08:17;4.93;;;1.70;;
16824;SDS011;8529;48.108;-1.706;2023-11-21T10:10:46;4.47;;;1.48;;
16824;SDS011;8529;48.108;-1.706;2023-11-21T10:13:17;4.28;;;2.28;;
16824;SDS011;8529;48.108;-1.706;2023-11-21T10:15:46;3.10;;;1.88;;
16824;SDS011;8529;48.108;-1.706;2023-11-21T10:18:16;6.20;;;1.90;;
16824;SDS011;8529;48.108;-1.706;2023-11-21T10:20:44;3.65;;;1.40;;
16824;SDS011;8529;48.108;-1.706;2023-11-21T10:23:18;4.55;;;1.70;;
16824;SDS011;8529;48.108;-1.706;2023-11-21T10:25:46;2.97;;;1.40;;
16824;SDS011;8529;48.108;-1.706;2023-11-21T10:28:13;6.55;;;1.67;;
16824;SDS011;8529;48.108;-1.706;2023-11-21T10:30:40;3.63;;;1.67;;
16824;SDS011;8529;48.108;-1.706;2023-11-21T10:33:09;3.00;;;1.35;;
16824;SDS011;8529;48.108;-1.706;2023-11-21T10:35:39;9.77;;;2.13;;
16824;SDS011;8529;48.108;-1.706;2023-11-21T10:38:11;5.63;;;1.80;;
16824;SDS011;8529;48.108;-1.706;2023-11-21T10:40:40;6.28;;;1.50;;
16824;SDS011;8529;48.108;-1.706;2023-11-21T10:43:07;7.43;;;2.25;;
16824;SDS011;8529;48.108;-1.706;2023-11-21T10:45:36;3.58;;;1.70;;
16824;SDS011;8529;48.108;-1.706;2023-11-21T10:48:04;4.90;;;1.95;;
16824;SDS011;8529;48.108;-1.706;2023-11-21T10:50:33;2.60;;;1.38;;
16824;SDS011;8529;48.108;-1.706;2023-11-21T10:53:01;1.83;;;1.30;;
16824;SDS011;8529;48.108;-1.706;2023-11-21T10:55:29;4.30;;;1.33;;
16824;SDS011;8529;48.108;-1.706;2023-11-21T10:57:59;2.92;;;1.52;;
16824;SDS011;8529;48.108;-1.706;2023-11-21T11:00:29;1.92;;;1.55;;
16824;SDS011;8529;48.108;-1.706;2023-11-21T11:02:56;3.92;;;1.58;;
16824;SDS011;8529;48.108;-1.706;2023-11-21T11:05:24;3.20;;;1.35;;
16824;SDS011;8529;48.108;-1.706;2023-11-21T11:07:59;2.78;;;1.45;;
16824;SDS011;8529;48.108;-1.706;2023-11-21T11:10:30;3.20;;;1.60;;
16824;SDS011;8529;48.108;-1.706;2023-11-21T11:12:58;4.22;;;1.63;;
16824;SDS011;8529;48.108;-1.706;2023-11-21T11:15:26;2.78;;;1.38;;
16824;SDS011;8529;48.108;-1.706;2023-11-21T11:17:54;2.17;;;1.77;;
16824;SDS011;8529;48.108;-1.706;2023-11-21T11:20:23;4.18;;;1.60;;
16824;SDS011;8529;48.108;-1.706;2023-11-21T11:22:53;6.10;;;2.05;;
16824;SDS011;8529;48.108;-1.706;2023-11-21T11:25:33;4.63;;;1.52;;
16824;SDS011;8529;48.108;-1.706;2023-11-21T11:28:12;2.47;;;1.63;;
16824;SDS011;8529;48.108;-1.706;2023-11-21T11:30:47;3.42;;;1.70;;
16824;SDS011;8529;48.108;-1.706;2023-11-21T11:33:27;4.95;;;1.95;;
16824;SDS011;8529;48.108;-1.706;2023-11-21T11:36:03;2.22;;;1.77;;
16824;SDS011;8529;48.108;-1.706;2023-11-21T11:38:33;5.00;;;2.10;;
16824;SDS011;8529;48.108;-1.706;2023-11-21T11:41:01;5.78;;;1.77;;
16824;SDS011;8529;48.108;-1.706;2023-11-21T11:43:31;3.00;;;1.67;;
16824;SDS011;8529;48.108;-1.706;2023-11-21T11:46:05;5.78;;;2.10;;
16824;SDS011;8529;48.108;-1.706;2023-11-21T11:48:34;3.53;;;2.38;;
16824;SDS011;8529;48.108;-1.706;2023-11-21T11:51:04;5.05;;;2.03;;
16824;SDS011;8529;48.108;-1.706;2023-11-21T11:53:37;3.67;;;1.95;;
16824;SDS011;8529;48.108;-1.706;2023-11-21T11:56:22;2.08;;;1.67;;
16824;SDS011;8529;48.108;-1.706;2023-11-21T11:58:52;3.78;;;2.08;;
16824;SDS011;8529;48.108;-1.706;2023-11-21T12:01:20;5.13;;;1.77;;
16824;SDS011;8529;48.108;-1.706;2023-11-21T12:06:55;13.23;;;2.00;;
16824;SDS011;8529;48.108;-1.706;2023-11-21T12:09:24;3.35;;;1.80;;
16824;SDS011;8529;48.108;-1.706;2023-11-21T12:11:51;3.78;;;2.17;;
16824;SDS011;8529;48.108;-1.706;2023-11-21T12:14:21;5.15;;;1.70;;
16824;SDS011;8529;48.108;-1.706;2023-11-21T12:16:48;4.72;;;1.83;;
16824;SDS011;8529;48.108;-1.706;2023-11-21T12:19:16;6.72;;;2.97;;
16824;SDS011;8529;48.108;-1.706;2023-11-21T12:21:43;3.05;;;1.92;;
16824;SDS011;8529;48.108;-1.706;2023-11-21T12:24:10;4.43;;;2.35;;
16824;SDS011;8529;48.108;-1.706;2023-11-21T12:26:38;6.13;;;2.75;;
16824;SDS011;8529;48.108;-1.706;2023-11-21T12:29:05;3.65;;;1.95;;
16824;SDS011;8529;48.108;-1.706;2023-11-21T12:31:35;6.57;;;2.83;;
16824;SDS011;8529;48.108;-1.706;2023-11-21T12:34:02;8.15;;;3.55;;
16824;SDS011;8529;48.108;-1.706;2023-11-21T12:36:29;3.75;;;2.08;;
16824;SDS011;8529;48.108;-1.706;2023-11-21T12:38:58;4.07;;;1.83;;
16824;SDS011;8529;48.108;-1.706;2023-11-21T12:41:25;4.85;;;2.10;;
16824;SDS011;8529;48.108;-1.706;2023-11-21T12:43:52;3.83;;;2.20;;
16824;SDS011;8529;48.108;-1.706;2023-11-21T12:46:19;3.80;;;2.05;;
16824;SDS011;8529;48.108;-1.706;2023-11-21T12:48:47;2.67;;;2.10;;
16824;SDS011;8529;48.108;-1.706;2023-11-21T12:51:15;3.88;;;2.00;;
16824;SDS011;8529;48.108;-1.706;2023-11-21T12:53:43;3.88;;;1.80;;
16824;SDS011;8529;48.108;-1.706;2023-11-21T12:56:12;2.35;;;1.60;;
16824;SDS011;8529;48.108;-1.706;2023-11-21T12:58:44;3.17;;;2.38;;
16824;SDS011;8529;48.108;-1.706;2023-11-21T13:01:12;3.83;;;1.70;;
16824;SDS011;8529;48.108;-1.706;2023-11-21T13:03:44;4.72;;;2.13;;
16824;SDS011;8529;48.108;-1.706;2023-11-21T13:06:16;3.53;;;1.80;;
16824;SDS011;8529;48.108;-1.706;2023-11-21T13:08:44;3.13;;;1.77;;
16824;SDS011;8529;48.108;-1.706;2023-11-21T13:11:12;2.28;;;1.70;;
16824;SDS011;8529;48.108;-1.706;2023-11-21T13:13:40;4.20;;;1.80;;
16824;SDS011;8529;48.108;-1.706;2023-11-21T13:16:08;3.28;;;2.20;;
16824;SDS011;8529;48.108;-1.706;2023-11-21T13:18:36;3.25;;;1.88;;
16824;SDS011;8529;48.108;-1.706;2023-11-21T13:21:07;5.25;;;2.30;;
16824;SDS011;8529;48.108;-1.706;2023-11-21T13:23:38;3.63;;;2.22;;
16824;SDS011;8529;48.108;-1.706;2023-11-21T13:26:06;2.80;;;1.98;;
16824;SDS011;8529;48.108;-1.706;2023-11-21T13:28:34;3.70;;;1.33;;
16824;SDS011;8529;48.108;-1.706;2023-11-21T13:31:03;3.97;;;1.50;;
16824;SDS011;8529;48.108;-1.706;2023-11-21T13:33:34;3.10;;;1.60;;
16824;SDS011;8529;48.108;-1.706;2023-11-21T13:36:03;2.50;;;1.50;;
16824;SDS011;8529;48.108;-1.706;2023-11-21T13:38:34;3.45;;;1.48;;
16824;SDS011;8529;48.108;-1.706;2023-11-21T13:41:02;3.45;;;1.50;;
16824;SDS011;8529;48.108;-1.706;2023-11-21T13:43:32;1.98;;;1.50;;
16824;SDS011;8529;48.108;-1.706;2023-11-21T13:45:59;2.45;;;1.45;;
16824;SDS011;8529;48.108;-1.706;2023-11-21T13:48:33;3.00;;;1.70;;
16824;SDS011;8529;48.108;-1.706;2023-11-21T13:51:07;3.50;;;1.77;;
16824;SDS011;8529;48.108;-1.706;2023-11-21T13:53:42;2.67;;;2.00;;
16824;SDS011;8529;48.108;-1.706;2023-11-21T13:56:09;4.78;;;2.05;;
16824;SDS011;8529;48.108;-1.706;2023-11-21T13:58:37;6.00;;;1.88;;
16824;SDS011;8529;48.108;-1.706;2023-11-21T14:01:11;3.55;;;2.03;;
16824;SDS011;8529;48.108;-1.706;2023-11-21T14:03:57;7.75;;;2.10;;
16824;SDS011;8529;48.108;-1.706;2023-11-21T14:06:33;3.78;;;1.98;;
16824;SDS011;8529;48.108;-1.706;2023-11-21T14:09:12;4.30;;;2.08;;
16824;SDS011;8529;48.108;-1.706;2023-11-21T14:11:47;4.75;;;1.80;;
16824;SDS011;8529;48.108;-1.706;2023-11-21T14:14:18;3.42;;;2.15;;
16824;SDS011;8529;48.108;-1.706;2023-11-21T14:16:45;6.18;;;1.38;;
16824;SDS011;8529;48.108;-1.706;2023-11-21T14:19:12;3.95;;;1.45;;
16824;SDS011;8529;48.108;-1.706;2023-11-21T14:21:42;5.10;;;1.88;;
16824;SDS011;8529;48.108;-1.706;2023-11-21T14:24:10;3.67;;;2.00;;
16824;SDS011;8529;48.108;-1.706;2023-11-21T14:26:39;6.47;;;1.90;;
16824;SDS011;8529;48.108;-1.706;2023-11-21T14:29:07;2.88;;;1.80;;
16824;SDS011;8529;48.108;-1.706;2023-11-21T14:31:34;3.50;;;1.60;;
16824;SDS011;8529;48.108;-1.706;2023-11-21T14:34:01;5.50;;;1.90;;
16824;SDS011;8529;48.108;-1.706;2023-11-21T14:36:29;4.10;;;1.58;;
16824;SDS011;8529;48.108;-1.706;2023-11-21T14:38:56;3.03;;;2.00;;
16824;SDS011;8529;48.108;-1.706;2023-11-21T14:41:25;5.63;;;1.52;;
16824;SDS011;8529;48.108;-1.706;2023-11-21T14:43:53;3.10;;;1.60;;
16824;SDS011;8529;48.108;-1.706;2023-11-21T14:46:20;3.80;;;2.05;;
16824;SDS011;8529;48.108;-1.706;2023-11-21T14:48:47;2.05;;;1.25;;
16824;SDS011;8529;48.108;-1.706;2023-11-21T14:51:23;4.28;;;1.75;;
16824;SDS011;8529;48.108;-1.706;2023-11-21T14:53:55;2.17;;;1.17;;
16824;SDS011;8529;48.108;-1.706;2023-11-21T14:56:26;5.28;;;1.55;;